Time;durP1;ratioP1;P1;durP2;ratioP2;P2;SDS_P1;SDS_P2;PMS_P1;PMS_P2;Temp;Humidity;BMP_temperature;BMP_pressure;BME280_temperature;BME280_humidity;BME280_pressure;Samples;Min_cycle;Max_cycle;Signal;HPM_P1;HPM_P2
2022/04/16 00:01:05;;;;;;;0.20;0.20;;;;;;;19.62;40.60;102571.31;5115478;28;20251;-30
2022/04/16 00:03:31;;;;;;;0.20;0.20;;;;;;;19.63;40.81;102567.47;5117864;28;20051;-30
2022/04/16 00:05:57;;;;;;;0.20;0.20;;;;;;;19.63;40.77;102573.00;5079761;28;20071;-29
2022/04/16 00:08:24;;;;;;;0.20;0.20;;;;;;;19.62;40.79;102574.94;5117485;28;20047;-29
2022/04/16 00:10:50;;;;;;;0.20;0.20;;;;;;;19.63;40.99;102568.31;5118460;28;20498;-30
2022/04/16 00:13:18;;;;;;;0.20;0.20;;;;;;;19.63;40.54;102573.00;5112124;28;20079;-30
2022/04/16 00:15:44;;;;;;;0.20;0.20;;;;;;;19.62;40.47;102566.63;5117604;28;20489;-29
2022/04/16 00:18:10;;;;;;;0.20;0.20;;;;;;;19.62;40.84;102569.41;5118328;28;20398;-29
2022/04/16 00:20:43;;;;;;;0.20;0.20;;;;;;;19.63;40.99;102561.94;5118770;28;20043;-29
2022/04/16 00:23:09;;;;;;;0.20;0.20;;;;;;;19.62;40.79;102563.88;5100561;28;20470;-30
2022/04/16 00:25:35;;;;;;;0.20;0.20;;;;;;;19.62;40.58;102563.03;5103734;28;20049;-28
2022/04/16 00:28:02;;;;;;;0.20;0.20;;;;;;;19.62;40.85;102560.28;5115390;28;20063;-29
2022/04/16 00:30:28;;;;;;;0.20;0.20;;;;;;;19.63;40.85;102559.19;5098912;28;20067;-29
2022/04/16 00:32:57;;;;;;;0.15;0.15;;;;;;;19.63;40.88;102556.41;5116447;28;20100;-29
2022/04/16 00:35:23;;;;;;;0.20;0.20;;;;;;;19.62;40.77;102552.81;5117327;28;20478;-29
2022/04/16 00:37:49;;;;;;;0.20;0.20;;;;;;;19.63;40.52;102553.66;5116022;28;20043;-28
2022/04/16 00:40:15;;;;;;;0.20;0.20;;;;;;;19.63;40.68;102559.19;5099304;28;20086;-29
2022/04/16 00:42:44;;;;;;;0.20;0.20;;;;;;;19.62;40.64;102557.50;5098490;28;20043;-29
2022/04/16 00:45:10;;;;;;;0.20;0.20;;;;;;;19.63;40.62;102556.41;5098894;28;20138;-29
2022/04/16 00:47:36;;;;;;;0.20;0.20;;;;;;;19.62;40.96;102550.06;5114458;28;20464;-29
2022/04/16 00:50:04;;;;;;;0.20;0.20;;;;;;;19.62;40.76;102554.75;5096305;28;20484;-29
2022/04/16 00:52:30;;;;;;;0.20;0.20;;;;;;;19.62;40.85;102551.97;5119772;28;20083;-30
2022/04/16 00:54:56;;;;;;;0.20;0.20;;;;;;;19.62;40.73;102544.53;5120863;28;20043;-29
2022/04/16 00:57:23;;;;;;;0.20;0.20;;;;;;;19.62;40.91;102554.75;5101667;28;20167;-31
2022/04/16 00:59:49;;;;;;;0.20;0.20;;;;;;;19.61;41.02;102553.91;5098925;28;20105;-29
2022/04/16 01:02:14;;;;;;;0.20;0.20;;;;;;;19.63;40.55;102562.78;5120515;28;20517;-29
2022/04/16 01:04:40;;;;;;;0.20;0.20;;;;;;;19.63;40.73;102556.41;5118666;28;20501;-29
2022/04/16 01:07:06;;;;;;;0.20;0.20;;;;;;;19.62;40.77;102563.03;5119250;28;20276;-29
2022/04/16 01:09:33;;;;;;;0.20;0.20;;;;;;;19.63;40.58;102561.94;5104804;28;20138;-29
2022/04/16 01:12:00;;;;;;;0.20;0.20;;;;;;;19.63;40.88;102562.78;5098303;28;20074;-31
2022/04/16 01:14:25;;;;;;;0.20;0.20;;;;;;;19.61;40.93;102555.84;5119488;28;20128;-29
2022/04/16 01:16:53;;;;;;;0.20;0.20;;;;;;;19.62;40.57;102557.50;5126005;28;20046;-29
2022/04/16 01:19:21;;;;;;;0.20;0.20;;;;;;;19.62;40.50;102561.09;5117531;28;20051;-31
2022/04/16 01:21:48;;;;;;;0.20;0.20;;;;;;;19.61;40.78;102564.97;5114425;28;20075;-29
2022/04/16 01:24:14;;;;;;;0.20;0.20;;;;;;;19.62;41.00;102558.34;5119501;28;20067;-29
2022/04/16 01:26:41;;;;;;;0.20;0.20;;;;;;;19.62;40.89;102563.03;5121000;28;20138;-31
2022/04/16 01:29:08;;;;;;;0.20;0.20;;;;;;;19.63;40.51;102570.25;5120861;28;21282;-29
2022/04/16 01:31:34;;;;;;;0.20;0.20;;;;;;;19.62;40.55;102565.81;5101775;28;20105;-29
2022/04/16 01:34:00;;;;;;;0.20;0.20;;;;;;;19.61;40.93;102561.38;5120485;27;20502;-29
2022/04/16 01:36:30;;;;;;;0.20;0.20;;;;;;;19.62;40.72;102566.63;5107283;27;20131;-29
2022/04/16 01:38:57;;;;;;;0.20;0.20;;;;;;;19.62;40.63;102563.88;5120134;28;20092;-28
2022/04/16 01:41:24;;;;;;;0.20;0.20;;;;;;;19.63;40.63;102564.72;5115592;28;20505;-29
2022/04/16 01:43:50;;;;;;;0.20;0.20;;;;;;;19.62;40.81;102563.88;5121156;28;20077;-29
2022/04/16 01:46:15;;;;;;;0.20;0.20;;;;;;;19.61;40.82;102564.97;5120455;28;20043;-29
2022/04/16 01:48:41;;;;;;;0.20;0.20;;;;;;;19.62;40.92;102569.41;5118801;28;20058;-29
2022/04/16 01:51:07;;;;;;;0.20;0.20;;;;;;;19.62;41.01;102574.94;5117705;28;20039;-29
2022/04/16 01:53:33;;;;;;;0.20;0.20;;;;;;;19.62;40.84;102577.69;5117414;28;20053;-30
2022/04/16 01:55:58;;;;;;;0.20;0.20;;;;;;;19.63;40.86;102578.53;5117452;28;20398;-28
2022/04/16 01:58:25;;;;;;;0.20;0.20;;;;;;;19.62;40.89;102582.38;5118529;28;20047;-29
2022/04/16 02:00:50;;;;;;;0.20;0.20;;;;;;;19.62;40.75;102583.22;5117132;28;20500;-28
2022/04/16 02:03:16;;;;;;;0.20;0.20;;;;;;;19.62;40.98;102591.50;5120449;28;20047;-29
2022/04/16 02:05:42;;;;;;;0.20;0.20;;;;;;;19.62;40.88;102585.16;5114905;28;20052;-29
2022/04/16 02:08:08;;;;;;;0.20;0.20;;;;;;;19.62;40.62;102588.75;5122931;28;20130;-29
2022/04/16 02:10:35;;;;;;;0.20;0.20;;;;;;;19.62;40.92;102597.03;5118058;28;20055;-29
2022/04/16 02:13:01;;;;;;;0.20;0.20;;;;;;;19.63;40.52;102595.13;5119332;28;20093;-28
2022/04/16 02:15:27;;;;;;;0.20;0.20;;;;;;;19.64;40.46;102596.78;5100314;28;20433;-30
2022/04/16 02:17:54;;;;;;;0.20;0.20;;;;;;;19.62;40.84;102596.19;5120193;28;20430;-29
2022/04/16 02:20:21;;;;;;;0.20;0.20;;;;;;;19.63;40.80;102600.63;5123576;27;20521;-29
2022/04/16 02:22:47;;;;;;;0.20;0.20;;;;;;;19.62;40.77;102599.81;5110777;28;20161;-28
2022/04/16 02:25:14;;;;;;;0.20;0.20;;;;;;;19.63;40.81;102604.25;5116436;28;20389;-29
2022/04/16 02:27:40;;;;;;;0.20;0.20;;;;;;;19.63;40.64;102600.63;5120990;28;20402;-28
2022/04/16 02:30:08;;;;;;;0.20;0.20;;;;;;;19.62;40.74;102602.56;5102698;28;20074;-29
2022/04/16 02:32:38;;;;;;;0.20;0.20;;;;;;;19.62;40.73;102604.50;5101587;28;20043;-29
2022/04/16 02:35:06;;;;;;;0.22;0.22;;;;;;;19.62;40.86;102605.31;5118985;28;20118;-28
2022/04/16 02:37:32;;;;;;;;;;;;;;;19.62;40.92;102605.31;5099579;28;20083;-29
2022/04/16 02:39:57;;;;;;;0.20;0.20;;;;;;;19.62;40.82;102607.25;5102854;28;19927;-31
2022/04/16 02:42:23;;;;;;;0.20;0.20;;;;;;;19.62;40.60;102610.03;5116642;28;20123;-29
2022/04/16 02:47:34;;;;;;;0.20;0.20;;;;;;;19.62;40.67;102616.38;5088492;28;20123;-31
2022/04/16 02:50:00;;;;;;;0.20;0.20;;;;;;;19.62;41.02;102615.53;5116633;28;20039;-28
2022/04/16 02:52:25;;;;;;;0.20;0.20;;;;;;;19.62;40.85;102618.31;5118874;28;20043;-29
2022/04/16 02:54:52;;;;;;;0.20;0.20;;;;;;;19.61;40.96;102623.00;5116946;28;20049;-29
2022/04/16 02:57:18;;;;;;;0.20;0.20;;;;;;;19.62;40.76;102619.16;5119721;28;20082;-28
2022/04/16 02:59:46;;;;;;;0.20;0.20;;;;;;;19.63;40.90;102618.06;5119238;28;20135;-28
2022/04/16 03:02:13;;;;;;;0.20;0.20;;;;;;;19.62;40.93;102623.84;5119861;28;20071;-28
2022/04/16 03:04:39;;;;;;;0.20;0.20;;;;;;;19.62;40.62;102619.16;5118058;28;20125;-29
2022/04/16 03:07:04;;;;;;;0.20;0.20;;;;;;;19.61;40.74;102625.75;5102548;28;20050;-28
2022/04/16 03:09:30;;;;;;;0.20;0.20;;;;;;;19.62;41.01;102623.84;5115286;28;20071;-30
2022/04/16 03:11:56;;;;;;;0.20;0.20;;;;;;;19.62;41.00;102623.84;5119379;28;20043;-29
2022/04/16 03:17:38;;;;;;;0.20;0.20;;;;;;;19.62;40.79;102632.97;5105402;28;20134;-30
2022/04/16 03:19:54;;;;;;;0.20;0.20;;;;;;;19.62;40.68;102634.91;5102190;28;20051;-29
2022/04/16 03:22:20;;;;;;;0.20;0.20;;;;;;;19.63;40.63;102631.03;5099383;28;20074;-29
2022/04/16 03:24:45;;;;;;;0.20;0.20;;;;;;;19.61;40.98;102630.47;5112562;28;20035;-30
2022/04/16 03:27:11;;;;;;;0.20;0.20;;;;;;;19.61;40.88;102624.94;5110410;28;20048;-29
2022/04/16 03:29:37;;;;;;;0.20;0.20;;;;;;;19.62;40.97;102638.50;5117772;28;20051;-29
2022/04/16 03:32:03;;;;;;;0.22;0.22;;;;;;;19.61;40.90;102639.59;5112784;28;20444;-29
2022/04/16 03:34:29;;;;;;;0.20;0.20;;;;;;;19.62;40.99;102644.03;5119092;28;20563;-30
2022/04/16 03:36:55;;;;;;;0.20;0.20;;;;;;;19.61;40.65;102635.97;5099348;28;20086;-29
2022/04/16 03:39:21;;;;;;;0.20;0.20;;;;;;;19.62;40.65;102637.66;5115079;28;20044;-30
2022/04/16 03:41:47;;;;;;;0.20;0.20;;;;;;;19.61;40.53;102642.34;5112291;28;20122;-29
2022/04/16 03:44:13;;;;;;;0.20;0.20;;;;;;;19.62;40.89;102637.66;5114283;28;20194;-30
2022/04/16 03:46:38;;;;;;;0.20;0.20;;;;;;;19.63;40.97;102631.03;5123574;28;20051;-29
2022/04/16 03:49:04;;;;;;;0.20;0.20;;;;;;;19.62;40.66;102637.66;5118162;28;20447;-30
2022/04/16 03:51:30;;;;;;;0.20;0.20;;;;;;;19.62;40.93;102648.72;5100989;28;20048;-29
2022/04/16 03:53:56;;;;;;;0.20;0.20;;;;;;;19.61;40.72;102639.59;5113911;28;20047;-31
2022/04/16 04:01:52;;;;;;;0.20;0.20;;;;;;;19.62;40.88;102637.66;5106259;28;20524;-29
2022/04/16 04:04:18;;;;;;;0.20;0.20;;;;;;;19.61;40.89;102634.06;5115167;28;20478;-29
2022/04/16 04:06:44;;;;;;;0.20;0.20;;;;;;;19.62;40.99;102643.19;5120290;28;20043;-29
2022/04/16 04:09:09;;;;;;;0.20;0.20;;;;;;;19.62;40.57;102637.66;5119030;28;20051;-29
2022/04/16 04:11:35;;;;;;;0.20;0.20;;;;;;;19.62;40.71;102643.19;5117488;28;20039;-29
2022/04/16 04:14:01;;;;;;;0.20;0.20;;;;;;;19.62;40.89;102643.19;5116268;28;20370;-30
2022/04/16 04:16:26;;;;;;;0.20;0.20;;;;;;;19.62;41.01;102637.66;5119838;28;20138;-29
2022/04/16 04:18:52;;;;;;;0.20;0.20;;;;;;;19.61;41.00;102642.34;5112605;28;20052;-29
2022/04/16 04:21:20;;;;;;;0.20;0.20;;;;;;;19.62;40.85;102644.03;5113924;28;20143;-30
2022/04/16 04:23:46;;;;;;;0.20;0.20;;;;;;;19.63;40.57;102642.09;5119019;28;20055;-31
2022/04/16 04:26:12;;;;;;;0.20;0.20;;;;;;;19.62;40.92;102648.72;5116003;28;20037;-30
2022/04/16 04:28:38;;;;;;;0.30;0.30;;;;;;;19.63;40.58;102655.91;5123371;28;20043;-29
2022/04/16 04:31:03;;;;;;;0.30;0.30;;;;;;;19.62;40.92;102657.84;5121755;28;20537;-29
2022/04/16 04:33:29;;;;;;;0.20;0.20;;;;;;;19.62;40.90;102666.13;5121036;28;20379;-29
2022/04/16 04:35:55;;;;;;;0.20;0.20;;;;;;;19.62;40.80;102668.06;5121548;28;20412;-29
2022/04/16 04:38:20;;;;;;;0.20;0.20;;;;;;;19.62;40.88;102663.38;5121541;28;20131;-29
2022/04/16 04:40:46;;;;;;;0.20;0.20;;;;;;;19.63;40.73;102667.81;5118958;28;20040;-30
2022/04/16 04:43:12;;;;;;;0.20;0.20;;;;;;;19.62;40.83;102670.81;5122908;28;20044;-30
2022/04/16 04:45:38;;;;;;;0.20;0.20;;;;;;;19.62;40.59;102681.88;5126044;28;20399;-29
2022/04/16 04:48:04;;;;;;;0.20;0.20;;;;;;;19.63;40.65;102684.38;5117861;28;20452;-30
2022/04/16 04:50:30;;;;;;;0.20;0.20;;;;;;;19.64;40.87;102676.94;5123857;28;20078;-30
2022/04/16 04:52:56;;;;;;;0.20;0.20;;;;;;;19.62;40.91;102679.13;5117314;28;20046;-29
2022/04/16 04:55:21;;;;;;;0.20;0.20;;;;;;;19.62;40.81;102679.13;5117787;28;20046;-31
2022/04/16 04:57:48;;;;;;;0.20;0.20;;;;;;;19.63;40.97;102680.78;5119933;28;20055;-29
2022/04/16 05:00:14;;;;;;;0.20;0.20;;;;;;;19.61;40.73;102686.56;5119310;28;20170;-30
2022/04/16 05:02:42;;;;;;;0.20;0.20;;;;;;;19.62;40.92;102682.72;5117103;28;20063;-29
2022/04/16 05:05:07;;;;;;;0.20;0.20;;;;;;;19.61;41.03;102692.09;5117192;28;20046;-30
2022/04/16 05:07:33;;;;;;;0.20;0.20;;;;;;;19.62;40.63;102685.47;5127935;28;20039;-29
2022/04/16 05:09:59;;;;;;;0.20;0.20;;;;;;;19.61;40.84;102681.03;5114791;28;20036;-29
2022/04/16 05:12:24;;;;;;;0.20;0.20;;;;;;;19.62;40.91;102695.69;5117130;28;20534;-29
2022/04/16 05:14:50;;;;;;;0.20;0.20;;;;;;;19.62;40.60;102693.78;5120235;28;20402;-30
2022/04/16 05:17:16;;;;;;;0.20;0.20;;;;;;;19.62;40.79;102699.31;5117627;28;20131;-29
2022/04/16 05:19:41;;;;;;;0.20;0.20;;;;;;;19.61;40.69;102702.31;5115700;28;20048;-30
2022/04/16 05:22:07;;;;;;;0.20;0.20;;;;;;;19.61;40.67;102705.91;5118846;28;20039;-29
2022/04/16 05:24:33;;;;;;;0.20;0.20;;;;;;;19.62;40.74;102717.81;5120814;28;20036;-30
2022/04/16 05:26:58;;;;;;;0.20;0.20;;;;;;;19.61;41.00;102705.91;5117144;28;20477;-30
2022/04/16 05:29:24;;;;;;;0.20;0.20;;;;;;;19.62;40.73;102715.88;5118825;28;20504;-30
2022/04/16 05:31:50;;;;;;;0.20;0.20;;;;;;;19.62;40.74;102715.03;5122347;28;20431;-29
2022/04/16 05:34:18;;;;;;;0.20;0.20;;;;;;;19.62;40.88;102715.03;5118253;28;20051;-30
2022/04/16 05:36:47;;;;;;;0.20;0.20;;;;;;;19.61;40.76;102714.22;5117567;27;20158;-29
2022/04/16 05:39:12;;;;;;;0.20;0.20;;;;;;;19.60;40.90;102723.53;5100482;28;20063;-29
2022/04/16 05:41:38;;;;;;;0.20;0.20;;;;;;;19.63;40.54;102725.00;5119624;28;20051;-29
2022/04/16 05:44:04;;;;;;;0.20;0.20;;;;;;;19.61;40.84;102722.50;5116187;28;20044;-29
2022/04/16 05:46:30;;;;;;;0.20;0.20;;;;;;;19.61;40.90;102736.31;5118823;28;20134;-29
2022/04/16 05:48:56;;;;;;;0.20;0.20;;;;;;;19.62;40.81;102732.47;5115267;28;20176;-30
2022/04/16 05:51:22;;;;;;;0.20;0.20;;;;;;;19.61;40.68;102749.31;5096941;28;20051;-29
2022/04/16 05:53:49;;;;;;;0.20;0.20;;;;;;;19.61;40.79;102749.31;5121468;28;20050;-30
2022/04/16 05:56:16;;;;;;;0.20;0.20;;;;;;;19.60;40.99;102748.41;5117016;28;20509;-30
2022/04/16 05:58:42;;;;;;;0.20;0.20;;;;;;;19.61;40.54;102749.31;5101094;28;20139;-29
2022/04/16 06:01:08;;;;;;;0.20;0.20;;;;;;;19.62;40.62;102754.56;5117341;28;20102;-29
2022/04/16 06:03:36;;;;;;;0.20;0.20;;;;;;;19.62;40.81;102756.50;5117077;28;20044;-30
2022/04/16 06:06:03;;;;;;;0.10;0.10;;;;;;;19.62;40.67;102759.25;5097845;28;20044;-29
2022/04/16 06:08:29;;;;;;;0.20;0.20;;;;;;;19.63;40.91;102766.47;5104359;28;20070;-30
2022/04/16 06:10:54;;;;;;;0.20;0.20;;;;;;;19.61;40.73;102763.97;5121197;28;20484;-29
2022/04/16 06:13:20;;;;;;;0.20;0.20;;;;;;;19.61;40.93;102766.72;5115706;28;20054;-29
2022/04/16 06:15:46;;;;;;;0.20;0.20;;;;;;;19.62;40.83;102762.03;5103086;28;20123;-29
2022/04/16 06:18:12;;;;;;;0.20;0.20;;;;;;;19.60;40.61;102756.69;5117647;28;20503;-32
2022/04/16 06:20:37;;;;;;;0.20;0.20;;;;;;;19.61;40.99;102766.72;5117307;28;20410;-30
2022/04/16 06:23:04;;;;;;;0.20;0.20;;;;;;;19.62;40.57;102757.34;5100598;28;20046;-29
2022/04/16 06:25:30;;;;;;;0.20;0.20;;;;;;;19.61;40.92;102775.00;5117968;28;20075;-28
2022/04/16 06:27:55;;;;;;;0.20;0.20;;;;;;;19.62;40.75;102767.56;5120794;28;20057;-29
2022/04/16 06:30:21;;;;;;;0.20;0.20;;;;;;;19.62;40.89;102775.84;5118481;28;20413;-32
2022/04/16 06:32:47;;;;;;;0.20;0.20;;;;;;;19.62;40.72;102776.69;5098819;28;20390;-29
2022/04/16 06:35:13;;;;;;;0.20;0.20;;;;;;;19.62;40.90;102770.31;5116343;28;20504;-29
2022/04/16 06:37:40;;;;;;;0.20;0.20;;;;;;;19.61;41.03;102771.41;5103506;28;20359;-30
2022/04/16 06:40:07;;;;;;;0.20;0.20;;;;;;;19.61;40.83;102769.47;5120733;28;20126;-29
2022/04/16 06:42:32;;;;;;;0.20;0.20;;;;;;;19.61;41.03;102772.25;5081961;28;20086;-30
2022/04/16 06:44:58;;;;;;;0.20;0.20;;;;;;;19.61;40.56;102774.16;5114186;28;20044;-29
2022/04/16 06:47:24;;;;;;;0.20;0.20;;;;;;;19.61;40.91;102769.47;5119341;28;20035;-30
2022/04/16 06:49:50;;;;;;;0.20;0.20;;;;;;;19.61;40.76;102772.25;5098155;28;20039;-29
2022/04/16 06:52:18;;;;;;;0.20;0.20;;;;;;;19.62;40.76;102767.56;5115230;28;20048;-29
2022/04/16 06:54:45;;;;;;;0.20;0.20;;;;;;;19.62;40.85;102770.31;5114772;28;20083;-29
2022/04/16 06:57:10;;;;;;;0.20;0.20;;;;;;;19.62;41.03;102770.31;5100459;28;20075;-30
2022/04/16 06:59:37;;;;;;;0.20;0.20;;;;;;;19.61;40.70;102775.00;5114247;28;20497;-28
2022/04/16 07:02:05;;;;;;;0.20;0.20;;;;;;;19.62;40.90;102781.38;5113399;28;20131;-29
2022/04/16 07:04:31;;;;;;;;;;;;;;;19.61;40.93;102776.94;5122351;28;20466;-29
2022/04/16 07:06:56;;;;;;;0.20;0.20;;;;;;;19.60;40.66;102780.72;5121014;28;19924;-29
2022/04/16 07:09:22;;;;;;;0.20;0.20;;;;;;;19.61;40.98;102785.22;5119411;28;20044;-29
2022/04/16 07:11:48;;;;;;;0.20;0.20;;;;;;;19.61;40.52;102786.06;5117872;28;20043;-29
2022/04/16 07:14:13;;;;;;;0.20;0.20;;;;;;;19.62;40.86;102781.38;5122909;28;20050;-29
2022/04/16 07:16:39;;;;;;;0.30;0.30;;;;;;;19.61;40.90;102782.47;5116364;28;20066;-29
2022/04/16 07:19:05;;;;;;;0.20;0.20;;;;;;;19.60;41.01;102780.72;5115223;28;20048;-29
2022/04/16 07:21:30;;;;;;;0.20;0.20;;;;;;;19.60;40.73;102778.81;5113209;28;20134;-29
2022/04/16 07:23:56;;;;;;;0.20;0.20;;;;;;;19.60;40.64;102775.19;5119076;28;20043;-28
2022/04/16 07:26:22;;;;;;;0.20;0.20;;;;;;;19.60;40.73;102783.50;5120022;28;20084;-29
2022/04/16 07:28:47;;;;;;;0.20;0.20;;;;;;;19.60;40.77;102786.25;5112781;28;20050;-29
2022/04/16 07:31:13;;;;;;;0.20;0.20;;;;;;;19.61;40.75;102785.22;5110608;28;20053;-29
2022/04/16 07:33:39;;;;;;;0.20;0.20;;;;;;;19.61;40.88;102782.47;5118675;28;20525;-29
2022/04/16 07:36:04;;;;;;;0.20;0.20;;;;;;;19.60;40.90;102783.50;5117758;28;20044;-29
2022/04/16 07:38:30;;;;;;;0.20;0.20;;;;;;;19.60;40.95;102784.31;5118231;27;20040;-29
2022/04/16 07:40:56;;;;;;;0.20;0.20;;;;;;;19.60;40.82;102778.81;5116384;28;20122;-29
2022/04/16 07:43:21;;;;;;;0.20;0.20;;;;;;;19.61;40.86;102779.69;5113982;28;20138;-28
2022/04/16 07:45:47;;;;;;;0.20;0.20;;;;;;;19.61;40.70;102779.69;5118081;28;20050;-29
2022/04/16 07:48:13;;;;;;;0.20;0.20;;;;;;;19.59;40.78;102774.34;5116685;28;20051;-30
2022/04/16 07:50:38;;;;;;;0.20;0.20;;;;;;;19.61;40.67;102772.25;5113450;28;20043;-29
2022/04/16 07:53:06;;;;;;;0.20;0.20;;;;;;;19.60;40.91;102764.97;5120124;28;20113;-29
2022/04/16 07:55:33;;;;;;;0.20;0.20;;;;;;;19.61;40.92;102765.88;5114165;28;20075;-29
2022/04/16 07:57:59;;;;;;;0.20;0.20;;;;;;;19.61;40.81;102771.41;5098413;28;20092;-29
2022/04/16 08:00:25;;;;;;;0.20;0.20;;;;;;;19.61;40.96;102771.41;5117268;28;20134;-29
2022/04/16 08:02:51;;;;;;;0.20;0.20;;;;;;;19.60;41.01;102778.81;5108329;28;20040;-29
2022/04/16 08:05:17;;;;;;;0.20;0.20;;;;;;;19.61;40.87;102774.16;5100104;28;20070;-29
2022/04/16 08:07:43;;;;;;;0.20;0.20;;;;;;;19.61;40.65;102768.66;5117646;28;20180;-28
2022/04/16 08:10:08;;;;;;;0.20;0.20;;;;;;;19.61;40.83;102771.41;5119282;28;20043;-29
2022/04/16 08:12:35;;;;;;;0.20;0.20;;;;;;;19.59;41.03;102771.59;5120823;28;20040;-29
2022/04/16 08:15:01;;;;;;;0.20;0.20;;;;;;;19.60;40.66;102772.44;5117301;28;20062;-30
2022/04/16 08:17:26;;;;;;;0.20;0.20;;;;;;;19.60;40.85;102772.44;5122173;28;20482;-29
2022/04/16 08:19:52;;;;;;;0.20;0.20;;;;;;;19.61;40.94;102780.53;5121934;28;20069;-29
2022/04/16 08:22:20;;;;;;;0.20;0.20;;;;;;;19.60;40.83;102773.28;5116980;28;20044;-29
2022/04/16 08:24:54;;;;;;;0.20;0.20;;;;;;;19.59;40.71;102774.34;5126478;28;20051;-29
2022/04/16 08:27:21;;;;;;;0.20;0.20;;;;;;;19.61;41.03;102780.53;5116771;28;20518;-29
2022/04/16 08:29:47;;;;;;;0.20;0.20;;;;;;;19.60;40.88;102773.28;5118593;28;20075;-29
2022/04/16 08:32:12;;;;;;;0.20;0.20;;;;;;;19.60;40.83;102778.81;5102988;28;20081;-29
2022/04/16 08:34:49;;;;;;;0.20;0.20;;;;;;;19.60;40.76;102776.03;5122922;28;20051;-29
2022/04/16 08:37:14;;;;;;;0.20;0.20;;;;;;;19.60;40.92;102780.72;5125389;28;20046;-31
2022/04/16 08:39:40;;;;;;;0.20;0.20;;;;;;;19.61;40.81;102785.22;5120947;28;20384;-29
2022/04/16 08:42:06;;;;;;;0.20;0.20;;;;;;;19.61;40.78;102783.31;5119973;28;20043;-29
2022/04/16 08:44:33;;;;;;;0.20;0.20;;;;;;;19.60;40.91;102777.97;5121663;28;20045;-28
2022/04/16 08:46:59;;;;;;;0.20;0.20;;;;;;;19.61;40.69;102785.22;5101378;28;20138;-29
2022/04/16 08:49:25;;;;;;;0.20;0.20;;;;;;;19.61;40.64;102780.53;5099311;28;20043;-31
2022/04/16 08:51:51;;;;;;;0.20;0.20;;;;;;;19.61;40.81;102788.00;5120818;28;20141;-29
2022/04/16 08:54:16;;;;;;;0.20;0.20;;;;;;;19.60;40.62;102784.31;5123764;28;20063;-30
2022/04/16 08:56:42;;;;;;;0.20;0.20;;;;;;;19.60;40.69;102787.09;5119630;28;20047;-29
2022/04/16 08:59:08;;;;;;;0.20;0.20;;;;;;;19.60;40.71;102787.09;5098614;28;20470;-30
2022/04/16 09:01:34;;;;;;;0.20;0.20;;;;;;;19.58;41.00;102789.25;5119174;28;20401;-29
2022/04/16 09:03:59;;;;;;;0.20;0.20;;;;;;;19.59;40.91;102792.88;5118953;28;20052;-29
2022/04/16 09:06:25;;;;;;;0.20;0.20;;;;;;;19.59;40.61;102799.22;5119538;28;20050;-29
2022/04/16 09:08:51;;;;;;;0.20;0.20;;;;;;;19.60;40.87;102798.16;5116398;28;20500;-30
2022/04/16 09:11:22;;;;;;;0.20;0.20;;;;;;;19.59;40.58;102790.94;5101436;28;20047;-31
2022/04/16 09:16:25;;;;;;;0.20;0.20;;;;;;;19.59;40.62;102795.63;5162334;27;20199;-29
2022/04/16 09:18:54;;;;;;;0.20;0.20;;;;;;;19.61;40.77;102802.66;5155431;27;20039;-29
2022/04/16 09:21:20;;;;;;;;;;;;;;;19.59;40.91;102795.63;5136685;27;20084;-27
2022/04/16 09:23:47;;;;;;;0.20;0.20;;;;;;;19.60;40.91;102791.78;5156979;27;20333;-28
2022/04/16 09:26:24;;;;;;;0.20;0.20;;;;;;;19.59;40.62;102813.06;5145144;27;20078;-28
2022/04/16 09:28:50;;;;;;;0.20;0.20;;;;;;;19.58;40.61;102796.72;5162774;27;20066;-28
2022/04/16 09:31:16;;;;;;;0.20;0.20;;;;;;;19.59;40.70;102812.22;5161640;27;20532;-28
2022/04/16 09:33:42;;;;;;;0.20;0.20;;;;;;;19.60;40.65;102803.69;5161354;27;20082;-29
2022/04/16 09:36:08;;;;;;;0.20;0.20;;;;;;;19.60;40.82;102798.16;5164408;27;20043;-28
2022/04/16 09:38:35;;;;;;;0.20;0.20;;;;;;;19.60;40.95;102803.69;5155723;27;20053;-28
2022/04/16 09:41:05;;;;;;;0.20;0.20;;;;;;;19.60;40.70;102805.59;5139160;27;20070;-28
2022/04/16 09:43:35;;;;;;;0.20;0.20;;;;;;;19.59;40.86;102809.44;5129263;27;20089;-28
2022/04/16 09:46:16;;;;;;;0.20;0.20;;;;;;;19.59;40.65;102802.00;5155138;27;20047;-28
2022/04/16 09:48:43;;;;;;;0.20;0.20;;;;;;;19.60;40.70;102802.84;5157197;27;20095;-27
2022/04/16 09:51:08;;;;;;;0.20;0.20;;;;;;;19.61;40.87;102801.81;5156018;27;20082;-28
2022/04/16 09:53:36;;;;;;;0.20;0.20;;;;;;;19.59;40.94;102793.72;5154609;27;20035;-27
2022/04/16 09:56:02;;;;;;;0.20;0.20;;;;;;;19.59;40.68;102796.47;5160945;27;20108;-30
2022/04/16 09:58:35;;;;;;;0.20;0.20;;;;;;;19.59;40.95;102798.41;5136327;27;20078;-32
2022/04/16 10:01:01;;;;;;;0.20;0.20;;;;;;;19.58;40.74;102792.03;5129085;27;20112;-30
2022/04/16 10:03:29;;;;;;;0.20;0.20;;;;;;;19.59;40.90;102790.94;5157240;27;20035;-30
2022/04/16 10:05:57;;;;;;;0.20;0.20;;;;;;;19.60;40.73;102789.00;5159103;27;20077;-32
2022/04/16 10:08:22;;;;;;;0.20;0.20;;;;;;;19.59;40.85;102792.88;5160890;27;22080;-30
2022/04/16 10:10:54;;;;;;;0.20;0.20;;;;;;;19.59;40.84;102796.47;5158380;27;20039;-30
2022/04/16 10:13:21;;;;;;;0.20;0.20;;;;;;;19.60;40.76;102786.25;5157727;27;20184;-31
2022/04/16 10:15:53;;;;;;;0.20;0.20;;;;;;;19.59;40.71;102792.88;5156837;27;20047;-30
2022/04/16 10:18:19;;;;;;;0.20;0.20;;;;;;;19.60;40.94;102783.50;5158168;27;20051;-30
2022/04/16 10:20:53;;;;;;;0.13;0.13;;;;;;;19.58;40.84;102789.25;5159006;27;20049;-30
2022/04/16 10:23:39;;;;;;;0.20;0.20;;;;;;;19.60;40.85;102783.50;5155480;27;20727;-30
2022/04/16 10:26:09;;;;;;;0.20;0.20;;;;;;;19.61;40.66;102785.22;5120065;27;20039;-30
2022/04/16 10:28:51;;;;;;;0.20;0.20;;;;;;;19.59;40.66;102784.56;5146511;27;20146;-30
2022/04/16 10:31:28;;;;;;;0.20;0.20;;;;;;;19.60;40.94;102783.50;5125658;27;20077;-30
2022/04/16 10:36:51;;;;;;;0.20;0.20;;;;;;;19.59;40.67;102781.81;5162654;27;20203;-29
2022/04/16 10:39:19;;;;;;;0.20;0.20;;;;;;;19.59;40.53;102784.56;5129674;27;20085;-27
2022/04/16 10:41:54;;;;;;;0.20;0.20;;;;;;;19.58;40.78;102778.22;5123212;27;20532;-28
2022/04/16 10:44:20;;;;;;;0.20;0.20;;;;;;;19.59;40.68;102782.66;5117241;27;20077;-28
2022/04/16 10:46:48;;;;;;;0.20;0.20;;;;;;;19.59;40.72;102776.28;5147038;27;20301;-28
2022/04/16 10:49:16;;;;;;;0.20;0.20;;;;;;;19.60;40.96;102784.31;5119215;27;20051;-29
2022/04/16 10:51:42;;;;;;;;;;;;;;;19.60;40.61;102776.03;5125771;27;20138;-28
2022/04/16 10:54:12;;;;;;;0.20;0.20;;;;;;;19.59;40.87;102776.28;5142161;27;19919;-27
2022/04/16 10:56:40;;;;;;;0.20;0.20;;;;;;;19.59;40.91;102779.06;5137987;27;20794;-29
2022/04/16 10:59:08;;;;;;;0.13;0.13;;;;;;;19.59;40.93;102770.75;5130676;27;20097;-28
2022/04/16 11:01:34;;;;;;;0.20;0.20;;;;;;;19.59;40.93;102768.00;5138231;27;20680;-27
2022/04/16 11:04:14;;;;;;;0.20;0.20;;;;;;;19.60;40.53;102766.91;5145336;27;20122;-28
2022/04/16 11:06:44;;;;;;;0.20;0.20;;;;;;;19.58;40.93;102769.09;5145979;27;20086;-28
2022/04/16 11:09:12;;;;;;;0.20;0.20;;;;;;;19.59;40.75;102766.06;5148621;27;20126;-29
2022/04/16 11:11:39;;;;;;;;;;;;;;;19.58;40.71;102756.09;5126145;27;20081;-28
2022/04/16 11:14:07;;;;;;;0.20;0.20;;;;;;;19.58;40.94;102767.16;5142316;27;20390;-27
2022/04/16 11:16:42;;;;;;;0.20;0.20;;;;;;;19.59;40.62;102760.53;5147785;27;20551;-28
2022/04/16 11:19:13;;;;;;;0.20;0.20;;;;;;;19.60;40.46;102762.22;5122349;27;20516;-28
2022/04/16 11:21:38;;;;;;;0.20;0.20;;;;;;;19.59;40.95;102762.47;5119323;27;20078;-28
2022/04/16 11:24:05;;;;;;;0.20;0.20;;;;;;;19.59;40.59;102774.34;5146099;27;20043;-27
2022/04/16 11:34:57;;;;;;;0.20;0.20;;;;;;;19.59;40.86;102749.47;5132625;27;20503;-28
2022/04/16 11:37:29;;;;;;;0.20;0.20;;;;;;;19.60;40.66;102756.69;5131331;27;20043;-27
2022/04/16 11:40:03;;;;;;;0.20;0.20;;;;;;;19.59;40.79;102760.53;5136054;27;20121;-28
2022/04/16 11:42:30;;;;;;;0.20;0.20;;;;;;;19.59;40.59;102749.47;5131070;27;20078;-27
2022/04/16 11:44:56;;;;;;;0.20;0.20;;;;;;;19.60;40.60;102744.78;5151789;27;20457;-28
2022/04/16 11:47:24;;;;;;;0.20;0.20;;;;;;;19.59;40.78;102743.97;5124930;27;20069;-28
2022/04/16 11:49:53;;;;;;;0.20;0.20;;;;;;;19.58;40.83;102745.03;5100542;28;20520;-29